sensor_id;sensor_type;location;lat;lon;timestamp;temperature;humidity
71367;DHT22;60030;52.274;8.040;2023-03-12T00:00:42;3.90;99.90
71367;DHT22;60030;52.274;8.040;2023-03-12T00:03:10;3.90;99.90
71367;DHT22;60030;52.274;8.040;2023-03-12T00:05:39;3.90;99.90
71367;DHT22;60030;52.274;8.040;2023-03-12T00:08:07;3.90;99.90
71367;DHT22;60030;52.274;8.040;2023-03-12T00:10:36;3.90;99.90
71367;DHT22;60030;52.274;8.040;2023-03-12T00:13:04;3.90;99.90
71367;DHT22;60030;52.274;8.040;2023-03-12T00:15:31;3.90;99.90
71367;DHT22;60030;52.274;8.040;2023-03-12T00:17:58;3.90;99.90
71367;DHT22;60030;52.274;8.040;2023-03-12T00:20:25;3.90;99.90
71367;DHT22;60030;52.274;8.040;2023-03-12T00:22:53;3.80;99.90
71367;DHT22;60030;52.274;8.040;2023-03-12T00:25:20;3.80;99.90
71367;DHT22;60030;52.274;8.040;2023-03-12T00:27:47;3.80;99.90
71367;DHT22;60030;52.274;8.040;2023-03-12T00:30:15;3.70;99.90
71367;DHT22;60030;52.274;8.040;2023-03-12T00:32:42;3.70;99.90
71367;DHT22;60030;52.274;8.040;2023-03-12T00:35:09;3.60;99.90
71367;DHT22;60030;52.274;8.040;2023-03-12T00:37:37;3.60;99.90
71367;DHT22;60030;52.274;8.040;2023-03-12T00:40:07;3.50;99.90
71367;DHT22;60030;52.274;8.040;2023-03-12T00:42:35;3.50;99.90
71367;DHT22;60030;52.274;8.040;2023-03-12T00:45:02;3.60;99.90
71367;DHT22;60030;52.274;8.040;2023-03-12T00:47:30;3.60;99.90
71367;DHT22;60030;52.274;8.040;2023-03-12T00:49:57;3.60;99.90
71367;DHT22;60030;52.274;8.040;2023-03-12T00:52:24;3.60;99.90
71367;DHT22;60030;52.274;8.040;2023-03-12T00:54:51;3.60;99.90
71367;DHT22;60030;52.274;8.040;2023-03-12T00:57:19;3.40;99.90
71367;DHT22;60030;52.274;8.040;2023-03-12T00:59:47;3.30;99.90
71367;DHT22;60030;52.274;8.040;2023-03-12T01:02:14;3.30;99.90
71367;DHT22;60030;52.274;8.040;2023-03-12T01:04:41;3.20;99.90
71367;DHT22;60030;52.274;8.040;2023-03-12T01:07:08;3.30;99.90
71367;DHT22;60030;52.274;8.040;2023-03-12T01:09:35;3.00;99.90
71367;DHT22;60030;52.274;8.040;2023-03-12T01:12:03;3.20;99.90
71367;DHT22;60030;52.274;8.040;2023-03-12T01:14:31;3.30;99.90
71367;DHT22;60030;52.274;8.040;2023-03-12T01:16:58;3.40;99.90
71367;DHT22;60030;52.274;8.040;2023-03-12T01:19:25;3.20;99.90
71367;DHT22;60030;52.274;8.040;2023-03-12T01:21:52;3.20;99.90
71367;DHT22;60030;52.274;8.040;2023-03-12T01:24:19;3.20;99.90
71367;DHT22;60030;52.274;8.040;2023-03-12T01:26:47;3.20;99.90
71367;DHT22;60030;52.274;8.040;2023-03-12T01:29:14;3.20;99.90
71367;DHT22;60030;52.274;8.040;2023-03-12T01:31:42;3.20;99.90
71367;DHT22;60030;52.274;8.040;2023-03-12T01:34:10;3.20;99.90
71367;DHT22;60030;52.274;8.040;2023-03-12T01:36:39;3.20;99.90
71367;DHT22;60030;52.274;8.040;2023-03-12T01:39:06;3.30;99.90
71367;DHT22;60030;52.274;8.040;2023-03-12T01:41:33;3.30;99.90
71367;DHT22;60030;52.274;8.040;2023-03-12T01:44:02;3.30;99.90
71367;DHT22;60030;52.274;8.040;2023-03-12T01:46:32;3.30;99.90
71367;DHT22;60030;52.274;8.040;2023-03-12T01:49:06;3.30;99.90
71367;DHT22;60030;52.274;8.040;2023-03-12T01:51:36;3.00;99.90
71367;DHT22;60030;52.274;8.040;2023-03-12T01:54:08;2.70;99.90
71367;DHT22;60030;52.274;8.040;2023-03-12T01:56:37;2.70;99.90
71367;DHT22;60030;52.274;8.040;2023-03-12T01:59:09;2.80;99.90
71367;DHT22;60030;52.274;8.040;2023-03-12T02:01:37;2.80;99.90
71367;DHT22;60030;52.274;8.040;2023-03-12T02:04:07;2.70;99.90
71367;DHT22;60030;52.274;8.040;2023-03-12T02:06:37;2.80;99.90
71367;DHT22;60030;52.274;8.040;2023-03-12T02:09:08;3.00;99.90
71367;DHT22;60030;52.274;8.040;2023-03-12T02:11:37;3.00;99.90
71367;DHT22;60030;52.274;8.040;2023-03-12T02:14:05;3.10;99.90
71367;DHT22;60030;52.274;8.040;2023-03-12T02:16:32;3.10;99.90
71367;DHT22;60030;52.274;8.040;2023-03-12T02:19:00;3.10;99.90
71367;DHT22;60030;52.274;8.040;2023-03-12T02:21:30;3.10;99.90
71367;DHT22;60030;52.274;8.040;2023-03-12T02:24:05;3.10;99.90
71367;DHT22;60030;52.274;8.040;2023-03-12T02:26:35;3.10;99.90
71367;DHT22;60030;52.274;8.040;2023-03-12T02:29:04;3.00;99.90
71367;DHT22;60030;52.274;8.040;2023-03-12T02:31:37;3.10;99.90
71367;DHT22;60030;52.274;8.040;2023-03-12T02:34:06;3.00;99.90
71367;DHT22;60030;52.274;8.040;2023-03-12T02:36:35;3.10;99.90
71367;DHT22;60030;52.274;8.040;2023-03-12T02:39:03;3.10;99.90
71367;DHT22;60030;52.274;8.040;2023-03-12T02:41:32;3.10;99.90
71367;DHT22;60030;52.274;8.040;2023-03-12T02:44:06;3.10;99.90
71367;DHT22;60030;52.274;8.040;2023-03-12T02:46:38;3.10;99.90
71367;DHT22;60030;52.274;8.040;2023-03-12T02:49:06;3.00;99.90
71367;DHT22;60030;52.274;8.040;2023-03-12T02:51:33;3.10;99.90
71367;DHT22;60030;52.274;8.040;2023-03-12T02:54:00;3.10;99.90
71367;DHT22;60030;52.274;8.040;2023-03-12T02:56:28;3.10;99.90
71367;DHT22;60030;52.274;8.040;2023-03-12T02:58:55;3.10;99.90
71367;DHT22;60030;52.274;8.040;2023-03-12T03:01:25;3.10;99.90
71367;DHT22;60030;52.274;8.040;2023-03-12T03:03:52;3.20;99.90
71367;DHT22;60030;52.274;8.040;2023-03-12T03:06:20;3.20;99.90
71367;DHT22;60030;52.274;8.040;2023-03-12T03:08:47;3.20;99.90
71367;DHT22;60030;52.274;8.040;2023-03-12T03:11:14;3.20;99.90
71367;DHT22;60030;52.274;8.040;2023-03-12T03:13:41;3.00;99.90
71367;DHT22;60030;52.274;8.040;2023-03-12T03:16:08;2.90;99.90
71367;DHT22;60030;52.274;8.040;2023-03-12T03:18:38;3.00;99.90
71367;DHT22;60030;52.274;8.040;2023-03-12T03:21:07;3.10;99.90
71367;DHT22;60030;52.274;8.040;2023-03-12T03:23:36;2.90;99.90
71367;DHT22;60030;52.274;8.040;2023-03-12T03:26:03;3.00;99.90
71367;DHT22;60030;52.274;8.040;2023-03-12T03:28:30;3.10;99.90
71367;DHT22;60030;52.274;8.040;2023-03-12T03:30:58;3.10;99.90
71367;DHT22;60030;52.274;8.040;2023-03-12T03:33:29;3.20;99.90
71367;DHT22;60030;52.274;8.040;2023-03-12T03:35:59;3.20;99.90
71367;DHT22;60030;52.274;8.040;2023-03-12T03:38:30;3.20;99.90
71367;DHT22;60030;52.274;8.040;2023-03-12T03:40:57;3.10;99.90
71367;DHT22;60030;52.274;8.040;2023-03-12T03:43:25;3.00;99.90
71367;DHT22;60030;52.274;8.040;2023-03-12T03:45:56;3.10;99.90
71367;DHT22;60030;52.274;8.040;2023-03-12T03:48:24;3.10;99.90
71367;DHT22;60030;52.274;8.040;2023-03-12T03:50:51;3.10;99.90
71367;DHT22;60030;52.274;8.040;2023-03-12T03:53:20;3.20;99.90
71367;DHT22;60030;52.274;8.040;2023-03-12T03:55:47;3.20;99.90
71367;DHT22;60030;52.274;8.040;2023-03-12T03:58:14;3.10;99.90
71367;DHT22;60030;52.274;8.040;2023-03-12T04:00:44;3.00;99.90
71367;DHT22;60030;52.274;8.040;2023-03-12T04:03:12;3.00;99.90
71367;DHT22;60030;52.274;8.040;2023-03-12T04:05:40;3.10;99.90
71367;DHT22;60030;52.274;8.040;2023-03-12T04:08:10;3.10;99.90
71367;DHT22;60030;52.274;8.040;2023-03-12T04:10:39;3.10;99.90
71367;DHT22;60030;52.274;8.040;2023-03-12T04:13:06;2.90;99.90
71367;DHT22;60030;52.274;8.040;2023-03-12T04:15:33;2.90;99.90
71367;DHT22;60030;52.274;8.040;2023-03-12T04:18:01;3.00;99.90
71367;DHT22;60030;52.274;8.040;2023-03-12T04:20:28;3.10;99.90
71367;DHT22;60030;52.274;8.040;2023-03-12T04:22:55;3.10;99.90
71367;DHT22;60030;52.274;8.040;2023-03-12T04:25:23;3.10;99.90
71367;DHT22;60030;52.274;8.040;2023-03-12T04:27:53;3.20;99.90
71367;DHT22;60030;52.274;8.040;2023-03-12T04:30:20;3.00;99.90
71367;DHT22;60030;52.274;8.040;2023-03-12T04:32:47;2.90;99.90
71367;DHT22;60030;52.274;8.040;2023-03-12T04:35:15;2.90;99.90
71367;DHT22;60030;52.274;8.040;2023-03-12T04:37:42;2.90;99.90
71367;DHT22;60030;52.274;8.040;2023-03-12T04:40:11;2.80;99.90
71367;DHT22;60030;52.274;8.040;2023-03-12T04:42:38;2.80;99.90
71367;DHT22;60030;52.274;8.040;2023-03-12T04:45:10;2.90;99.90
71367;DHT22;60030;52.274;8.040;2023-03-12T04:47:40;2.80;99.90
71367;DHT22;60030;52.274;8.040;2023-03-12T04:50:08;3.00;99.90
71367;DHT22;60030;52.274;8.040;2023-03-12T04:52:36;3.10;99.90
71367;DHT22;60030;52.274;8.040;2023-03-12T04:55:06;3.10;99.90
71367;DHT22;60030;52.274;8.040;2023-03-12T04:57:33;3.10;99.90
71367;DHT22;60030;52.274;8.040;2023-03-12T05:00:01;3.00;99.90
71367;DHT22;60030;52.274;8.040;2023-03-12T05:02:37;2.80;99.90
71367;DHT22;60030;52.274;8.040;2023-03-12T05:05:04;2.80;99.90
71367;DHT22;60030;52.274;8.040;2023-03-12T05:07:32;2.80;99.90
71367;DHT22;60030;52.274;8.040;2023-03-12T05:09:59;2.80;99.90
71367;DHT22;60030;52.274;8.040;2023-03-12T05:12:26;2.70;99.90
71367;DHT22;60030;52.274;8.040;2023-03-12T05:14:53;2.50;99.90
71367;DHT22;60030;52.274;8.040;2023-03-12T05:17:21;2.50;99.90
71367;DHT22;60030;52.274;8.040;2023-03-12T05:19:49;2.50;99.90
71367;DHT22;60030;52.274;8.040;2023-03-12T05:22:17;2.30;99.90
71367;DHT22;60030;52.274;8.040;2023-03-12T05:24:44;2.50;99.90
71367;DHT22;60030;52.274;8.040;2023-03-12T05:27:11;2.60;99.90
71367;DHT22;60030;52.274;8.040;2023-03-12T05:29:38;2.50;99.90
71367;DHT22;60030;52.274;8.040;2023-03-12T05:32:06;2.40;99.90
71367;DHT22;60030;52.274;8.040;2023-03-12T05:34:34;2.30;99.90
71367;DHT22;60030;52.274;8.040;2023-03-12T05:37:03;2.40;99.90
71367;DHT22;60030;52.274;8.040;2023-03-12T05:39:31;2.40;99.90
71367;DHT22;60030;52.274;8.040;2023-03-12T05:42:03;2.70;99.90
71367;DHT22;60030;52.274;8.040;2023-03-12T05:44:31;2.60;99.90
71367;DHT22;60030;52.274;8.040;2023-03-12T05:47:00;2.80;99.90
71367;DHT22;60030;52.274;8.040;2023-03-12T05:49:27;2.80;99.90
71367;DHT22;60030;52.274;8.040;2023-03-12T05:51:55;2.90;99.90
71367;DHT22;60030;52.274;8.040;2023-03-12T05:54:24;3.10;99.90
71367;DHT22;60030;52.274;8.040;2023-03-12T05:56:52;3.10;99.90
71367;DHT22;60030;52.274;8.040;2023-03-12T05:59:21;3.10;99.90
71367;DHT22;60030;52.274;8.040;2023-03-12T06:01:49;2.90;99.90
71367;DHT22;60030;52.274;8.040;2023-03-12T06:04:16;3.10;99.90
71367;DHT22;60030;52.274;8.040;2023-03-12T06:06:44;3.10;99.90
71367;DHT22;60030;52.274;8.040;2023-03-12T06:09:11;3.10;99.90
71367;DHT22;60030;52.274;8.040;2023-03-12T06:11:41;3.20;99.90
71367;DHT22;60030;52.274;8.040;2023-03-12T06:14:09;3.40;99.90
71367;DHT22;60030;52.274;8.040;2023-03-12T06:16:36;3.20;99.90
71367;DHT22;60030;52.274;8.040;2023-03-12T06:19:04;3.40;99.90
71367;DHT22;60030;52.274;8.040;2023-03-12T06:21:33;3.30;99.90
71367;DHT22;60030;52.274;8.040;2023-03-12T06:24:02;3.50;99.90
71367;DHT22;60030;52.274;8.040;2023-03-12T06:26:37;3.70;99.90
71367;DHT22;60030;52.274;8.040;2023-03-12T06:29:06;3.80;99.90
71367;DHT22;60030;52.274;8.040;2023-03-12T06:31:33;3.70;99.90
71367;DHT22;60030;52.274;8.040;2023-03-12T06:34:00;3.70;99.90
71367;DHT22;60030;52.274;8.040;2023-03-12T06:36:27;3.60;99.90
71367;DHT22;60030;52.274;8.040;2023-03-12T06:38:54;3.60;99.90
71367;DHT22;60030;52.274;8.040;2023-03-12T06:41:21;3.60;99.90
71367;DHT22;60030;52.274;8.040;2023-03-12T06:43:49;3.70;99.90
71367;DHT22;60030;52.274;8.040;2023-03-12T06:46:19;3.80;99.90
71367;DHT22;60030;52.274;8.040;2023-03-12T06:48:47;3.80;99.90
71367;DHT22;60030;52.274;8.040;2023-03-12T06:51:15;3.80;99.90
71367;DHT22;60030;52.274;8.040;2023-03-12T06:53:42;3.90;99.90
71367;DHT22;60030;52.274;8.040;2023-03-12T06:56:10;4.10;99.90
71367;DHT22;60030;52.274;8.040;2023-03-12T06:58:37;4.30;99.90
71367;DHT22;60030;52.274;8.040;2023-03-12T07:01:05;4.50;99.90
71367;DHT22;60030;52.274;8.040;2023-03-12T07:03:34;4.50;99.90
71367;DHT22;60030;52.274;8.040;2023-03-12T07:06:01;4.60;99.90
71367;DHT22;60030;52.274;8.040;2023-03-12T07:08:28;4.50;99.90
71367;DHT22;60030;52.274;8.040;2023-03-12T07:10:56;4.40;99.90
71367;DHT22;60030;52.274;8.040;2023-03-12T07:13:25;4.30;99.90
71367;DHT22;60030;52.274;8.040;2023-03-12T07:15:52;4.30;99.90
71367;DHT22;60030;52.274;8.040;2023-03-12T07:18:19;4.40;99.90
71367;DHT22;60030;52.274;8.040;2023-03-12T07:20:47;4.50;99.90
71367;DHT22;60030;52.274;8.040;2023-03-12T07:23:14;4.60;99.90
71367;DHT22;60030;52.274;8.040;2023-03-12T07:25:41;4.50;99.90
71367;DHT22;60030;52.274;8.040;2023-03-12T07:28:09;4.60;99.90
71367;DHT22;60030;52.274;8.040;2023-03-12T07:30:37;4.70;99.90
71367;DHT22;60030;52.274;8.040;2023-03-12T07:33:06;4.80;99.90
71367;DHT22;60030;52.274;8.040;2023-03-12T07:35:34;4.70;99.90
71367;DHT22;60030;52.274;8.040;2023-03-12T07:38:05;4.90;99.90
71367;DHT22;60030;52.274;8.040;2023-03-12T07:40:32;4.90;99.90
71367;DHT22;60030;52.274;8.040;2023-03-12T07:43:00;4.90;99.90
71367;DHT22;60030;52.274;8.040;2023-03-12T07:45:31;4.90;99.90
71367;DHT22;60030;52.274;8.040;2023-03-12T07:47:58;4.80;99.90
71367;DHT22;60030;52.274;8.040;2023-03-12T07:50:25;4.80;99.90
71367;DHT22;60030;52.274;8.040;2023-03-12T07:52:52;4.90;99.90
71367;DHT22;60030;52.274;8.040;2023-03-12T07:55:21;5.10;99.90
71367;DHT22;60030;52.274;8.040;2023-03-12T07:57:48;5.20;99.90
71367;DHT22;60030;52.274;8.040;2023-03-12T08:00:15;5.40;99.90
71367;DHT22;60030;52.274;8.040;2023-03-12T08:02:42;5.40;99.90
71367;DHT22;60030;52.274;8.040;2023-03-12T08:05:09;5.40;99.90
71367;DHT22;60030;52.274;8.040;2023-03-12T08:07:37;5.40;99.90
71367;DHT22;60030;52.274;8.040;2023-03-12T08:10:06;5.40;99.90
71367;DHT22;60030;52.274;8.040;2023-03-12T08:12:34;5.50;99.90
71367;DHT22;60030;52.274;8.040;2023-03-12T08:15:02;5.60;99.90
71367;DHT22;60030;52.274;8.040;2023-03-12T08:17:29;5.40;99.90
71367;DHT22;60030;52.274;8.040;2023-03-12T08:19:56;5.60;99.90
71367;DHT22;60030;52.274;8.040;2023-03-12T08:22:24;5.70;99.90
71367;DHT22;60030;52.274;8.040;2023-03-12T08:24:51;5.70;99.90
71367;DHT22;60030;52.274;8.040;2023-03-12T08:27:18;5.80;99.90
71367;DHT22;60030;52.274;8.040;2023-03-12T08:29:46;5.80;99.90
71367;DHT22;60030;52.274;8.040;2023-03-12T08:32:13;5.70;99.90
71367;DHT22;60030;52.274;8.040;2023-03-12T08:34:40;5.90;99.90
71367;DHT22;60030;52.274;8.040;2023-03-12T08:37:07;5.90;99.90
71367;DHT22;60030;52.274;8.040;2023-03-12T08:39:34;5.80;99.90
71367;DHT22;60030;52.274;8.040;2023-03-12T08:42:02;5.90;99.90
71367;DHT22;60030;52.274;8.040;2023-03-12T08:44:30;5.90;99.90
71367;DHT22;60030;52.274;8.040;2023-03-12T08:46:59;5.90;99.90
71367;DHT22;60030;52.274;8.040;2023-03-12T08:49:26;6.10;99.90
71367;DHT22;60030;52.274;8.040;2023-03-12T08:51:53;6.20;99.90
71367;DHT22;60030;52.274;8.040;2023-03-12T08:54:20;6.40;99.90
71367;DHT22;60030;52.274;8.040;2023-03-12T08:56:49;6.40;99.90
71367;DHT22;60030;52.274;8.040;2023-03-12T08:59:17;6.20;99.90
71367;DHT22;60030;52.274;8.040;2023-03-12T09:01:45;6.00;99.90
71367;DHT22;60030;52.274;8.040;2023-03-12T09:04:13;6.20;99.90
71367;DHT22;60030;52.274;8.040;2023-03-12T09:06:40;6.10;99.90
71367;DHT22;60030;52.274;8.040;2023-03-12T09:09:07;6.30;99.90
71367;DHT22;60030;52.274;8.040;2023-03-12T09:11:36;6.20;99.90
71367;DHT22;60030;52.274;8.040;2023-03-12T09:14:04;6.30;99.90
71367;DHT22;60030;52.274;8.040;2023-03-12T09:16:31;6.30;99.90
71367;DHT22;60030;52.274;8.040;2023-03-12T09:18:58;6.30;99.90
71367;DHT22;60030;52.274;8.040;2023-03-12T09:21:27;6.40;99.90
71367;DHT22;60030;52.274;8.040;2023-03-12T09:23:54;6.00;99.90
71367;DHT22;60030;52.274;8.040;2023-03-12T09:26:21;5.80;99.90
71367;DHT22;60030;52.274;8.040;2023-03-12T09:28:49;5.90;99.90
71367;DHT22;60030;52.274;8.040;2023-03-12T09:31:16;5.80;99.90
71367;DHT22;60030;52.274;8.040;2023-03-12T09:33:43;5.80;99.90
71367;DHT22;60030;52.274;8.040;2023-03-12T09:36:10;6.00;99.90
71367;DHT22;60030;52.274;8.040;2023-03-12T09:38:39;6.20;99.90
71367;DHT22;60030;52.274;8.040;2023-03-12T09:41:17;6.30;99.90
71367;DHT22;60030;52.274;8.040;2023-03-12T09:43:50;6.40;99.90
71367;DHT22;60030;52.274;8.040;2023-03-12T09:46:23;6.20;99.90
71367;DHT22;60030;52.274;8.040;2023-03-12T09:48:52;6.10;99.90
71367;DHT22;60030;52.274;8.040;2023-03-12T09:51:26;6.10;99.90
71367;DHT22;60030;52.274;8.040;2023-03-12T09:53:58;6.10;99.90
71367;DHT22;60030;52.274;8.040;2023-03-12T09:56:26;5.80;99.90
71367;DHT22;60030;52.274;8.040;2023-03-12T09:58:54;6.00;99.90
71367;DHT22;60030;52.274;8.040;2023-03-12T10:01:36;6.10;99.90
71367;DHT22;60030;52.274;8.040;2023-03-12T10:04:18;5.90;99.90
71367;DHT22;60030;52.274;8.040;2023-03-12T10:06:51;5.90;99.90
71367;DHT22;60030;52.274;8.040;2023-03-12T10:09:41;5.90;99.90
71367;DHT22;60030;52.274;8.040;2023-03-12T10:12:20;5.90;99.90
71367;DHT22;60030;52.274;8.040;2023-03-12T10:15:00;5.90;99.90
71367;DHT22;60030;52.274;8.040;2023-03-12T10:17:41;5.80;99.90
71367;DHT22;60030;52.274;8.040;2023-03-12T10:20:32;5.90;99.90
71367;DHT22;60030;52.274;8.040;2023-03-12T10:23:07;5.80;99.90
71367;DHT22;60030;52.274;8.040;2023-03-12T10:25:40;5.60;99.90
71367;DHT22;60030;52.274;8.040;2023-03-12T10:28:13;5.70;99.90
71367;DHT22;60030;52.274;8.040;2023-03-12T10:30:45;5.70;99.90
71367;DHT22;60030;52.274;8.040;2023-03-12T10:33:17;5.80;99.90
71367;DHT22;60030;52.274;8.040;2023-03-12T10:35:45;5.50;99.90
71367;DHT22;60030;52.274;8.040;2023-03-12T10:38:25;5.70;99.90
71367;DHT22;60030;52.274;8.040;2023-03-12T10:40:54;5.80;99.90
71367;DHT22;60030;52.274;8.040;2023-03-12T10:43:21;5.90;99.90
71367;DHT22;60030;52.274;8.040;2023-03-12T10:45:58;5.80;99.90
71367;DHT22;60030;52.274;8.040;2023-03-12T10:48:29;5.90;99.90
71367;DHT22;60030;52.274;8.040;2023-03-12T10:51:01;5.90;99.90
71367;DHT22;60030;52.274;8.040;2023-03-12T10:53:30;5.70;99.90
71367;DHT22;60030;52.274;8.040;2023-03-12T10:56:05;5.70;99.90
71367;DHT22;60030;52.274;8.040;2023-03-12T10:58:35;6.00;99.90
71367;DHT22;60030;52.274;8.040;2023-03-12T11:01:04;6.20;99.90
71367;DHT22;60030;52.274;8.040;2023-03-12T11:03:31;6.30;99.90
71367;DHT22;60030;52.274;8.040;2023-03-12T11:06:00;6.30;99.90
71367;DHT22;60030;52.274;8.040;2023-03-12T11:08:29;6.40;99.90
71367;DHT22;60030;52.274;8.040;2023-03-12T11:10:57;6.30;99.90
71367;DHT22;60030;52.274;8.040;2023-03-12T11:13:31;6.40;99.90
71367;DHT22;60030;52.274;8.040;2023-03-12T11:16:00;6.60;99.90
71367;DHT22;60030;52.274;8.040;2023-03-12T11:18:32;6.50;99.90
71367;DHT22;60030;52.274;8.040;2023-03-12T11:21:18;6.50;99.90
71367;DHT22;60030;52.274;8.040;2023-03-12T11:24:04;6.50;99.90
71367;DHT22;60030;52.274;8.040;2023-03-12T11:26:41;6.10;99.90
71367;DHT22;60030;52.274;8.040;2023-03-12T11:29:18;6.10;99.90
71367;DHT22;60030;52.274;8.040;2023-03-12T11:32:00;6.40;99.90
71367;DHT22;60030;52.274;8.040;2023-03-12T11:34:30;6.30;99.90
71367;DHT22;60030;52.274;8.040;2023-03-12T11:37:05;6.30;99.90
71367;DHT22;60030;52.274;8.040;2023-03-12T11:39:44;6.40;99.90
71367;DHT22;60030;52.274;8.040;2023-03-12T11:42:26;6.30;99.90
71367;DHT22;60030;52.274;8.040;2023-03-12T11:45:05;6.30;99.90
71367;DHT22;60030;52.274;8.040;2023-03-12T11:47:42;6.20;99.90
71367;DHT22;60030;52.274;8.040;2023-03-12T11:50:17;6.10;99.90
71367;DHT22;60030;52.274;8.040;2023-03-12T11:53:03;6.20;99.90
71367;DHT22;60030;52.274;8.040;2023-03-12T11:58:37;6.10;99.90
71367;DHT22;60030;52.274;8.040;2023-03-12T12:01:11;6.20;99.90
71367;DHT22;60030;52.274;8.040;2023-03-12T12:03:51;6.40;99.90
71367;DHT22;60030;52.274;8.040;2023-03-12T12:06:26;6.30;99.90
71367;DHT22;60030;52.274;8.040;2023-03-12T12:09:11;6.40;99.90
71367;DHT22;60030;52.274;8.040;2023-03-12T12:11:47;6.40;99.90
71367;DHT22;60030;52.274;8.040;2023-03-12T12:14:28;6.30;99.90
71367;DHT22;60030;52.274;8.040;2023-03-12T12:17:07;6.30;99.90
71367;DHT22;60030;52.274;8.040;2023-03-12T12:19:46;6.40;99.90
71367;DHT22;60030;52.274;8.040;2023-03-12T12:22:34;6.60;99.90
71367;DHT22;60030;52.274;8.040;2023-03-12T12:25:24;6.70;99.90
71367;DHT22;60030;52.274;8.040;2023-03-12T12:28:04;6.50;99.90
71367;DHT22;60030;52.274;8.040;2023-03-12T12:30:44;6.70;99.90
71367;DHT22;60030;52.274;8.040;2023-03-12T12:33:26;6.70;99.90
71367;DHT22;60030;52.274;8.040;2023-03-12T12:35:56;6.50;99.90
71367;DHT22;60030;52.274;8.040;2023-03-12T12:38:28;6.40;99.90
71367;DHT22;60030;52.274;8.040;2023-03-12T12:41:02;6.70;99.90
71367;DHT22;60030;52.274;8.040;2023-03-12T12:43:33;6.80;99.90
71367;DHT22;60030;52.274;8.040;2023-03-12T12:46:04;6.70;99.90
71367;DHT22;60030;52.274;8.040;2023-03-12T12:48:36;6.70;99.90
71367;DHT22;60030;52.274;8.040;2023-03-12T12:51:05;6.90;99.90
71367;DHT22;60030;52.274;8.040;2023-03-12T12:53:39;7.30;99.90
71367;DHT22;60030;52.274;8.040;2023-03-12T12:56:16;7.10;99.90
71367;DHT22;60030;52.274;8.040;2023-03-12T12:58:58;7.00;99.90
71367;DHT22;60030;52.274;8.040;2023-03-12T13:01:28;6.90;99.90
71367;DHT22;60030;52.274;8.040;2023-03-12T13:04:01;7.00;99.90
71367;DHT22;60030;52.274;8.040;2023-03-12T13:06:52;7.10;99.90
71367;DHT22;60030;52.274;8.040;2023-03-12T13:09:33;6.90;99.90
71367;DHT22;60030;52.274;8.040;2023-03-12T13:12:07;7.10;99.90
71367;DHT22;60030;52.274;8.040;2023-03-12T13:14:39;7.20;99.90
71367;DHT22;60030;52.274;8.040;2023-03-12T13:17:18;7.30;99.90
71367;DHT22;60030;52.274;8.040;2023-03-12T13:19:49;7.10;99.90
71367;DHT22;60030;52.274;8.040;2023-03-12T13:25:15;7.30;99.90
71367;DHT22;60030;52.274;8.040;2023-03-12T13:27:46;7.60;99.90
71367;DHT22;60030;52.274;8.040;2023-03-12T13:30:48;7.80;99.90
71367;DHT22;60030;52.274;8.040;2023-03-12T13:33:16;8.10;99.90
71367;DHT22;60030;52.274;8.040;2023-03-12T13:36:05;7.90;99.90
71367;DHT22;60030;52.274;8.040;2023-03-12T13:38:38;8.00;99.90
71367;DHT22;60030;52.274;8.040;2023-03-12T13:41:29;8.10;99.90
71367;DHT22;60030;52.274;8.040;2023-03-12T13:43:57;7.90;99.90
71367;DHT22;60030;52.274;8.040;2023-03-12T13:46:43;8.00;99.90
71367;DHT22;60030;52.274;8.040;2023-03-12T13:49:16;8.00;99.90
71367;DHT22;60030;52.274;8.040;2023-03-12T13:52:06;7.90;99.90
71367;DHT22;60030;52.274;8.040;2023-03-12T13:54:40;7.90;99.90
71367;DHT22;60030;52.274;8.040;2023-03-12T13:57:19;8.00;99.90
71367;DHT22;60030;52.274;8.040;2023-03-12T13:59:50;8.00;99.90
71367;DHT22;60030;52.274;8.040;2023-03-12T14:02:23;7.90;99.90
71367;DHT22;60030;52.274;8.040;2023-03-12T14:04:51;7.90;99.90
71367;DHT22;60030;52.274;8.040;2023-03-12T14:07:53;7.90;99.90
71367;DHT22;60030;52.274;8.040;2023-03-12T14:10:31;7.80;99.90
71367;DHT22;60030;52.274;8.040;2023-03-12T14:13:08;7.80;99.90
71367;DHT22;60030;52.274;8.040;2023-03-12T14:15:43;7.90;99.90
71367;DHT22;60030;52.274;8.040;2023-03-12T14:18:19;7.80;99.90
71367;DHT22;60030;52.274;8.040;2023-03-12T14:20:52;7.80;99.90
71367;DHT22;60030;52.274;8.040;2023-03-12T14:23:24;7.80;99.90
71367;DHT22;60030;52.274;8.040;2023-03-12T14:25:56;7.80;99.90
71367;DHT22;60030;52.274;8.040;2023-03-12T14:28:25;7.80;99.90
71367;DHT22;60030;52.274;8.040;2023-03-12T14:30:58;7.80;99.90
71367;DHT22;60030;52.274;8.040;2023-03-12T14:33:31;7.80;99.90
71367;DHT22;60030;52.274;8.040;2023-03-12T14:36:03;7.80;99.90
71367;DHT22;60030;52.274;8.040;2023-03-12T14:38:35;7.90;99.90
71367;DHT22;60030;52.274;8.040;2023-03-12T14:41:06;7.90;99.90
71367;DHT22;60030;52.274;8.040;2023-03-12T14:43:39;8.00;99.90
71367;DHT22;60030;52.274;8.040;2023-03-12T14:46:13;8.10;99.90
71367;DHT22;60030;52.274;8.040;2023-03-12T14:48:40;8.10;99.90
71367;DHT22;60030;52.274;8.040;2023-03-12T14:51:18;8.10;99.90
71367;DHT22;60030;52.274;8.040;2023-03-12T14:53:47;8.20;99.90
71367;DHT22;60030;52.274;8.040;2023-03-12T14:56:22;8.30;99.90
71367;DHT22;60030;52.274;8.040;2023-03-12T14:58:51;8.30;99.90
71367;DHT22;60030;52.274;8.040;2023-03-12T15:01:20;8.40;99.90
71367;DHT22;60030;52.274;8.040;2023-03-12T15:03:51;8.50;99.90
71367;DHT22;60030;52.274;8.040;2023-03-12T15:06:25;8.50;99.90
71367;DHT22;60030;52.274;8.040;2023-03-12T15:08:55;8.50;99.90
71367;DHT22;60030;52.274;8.040;2023-03-12T15:11:24;8.50;99.90
71367;DHT22;60030;52.274;8.040;2023-03-12T15:13:53;8.40;99.90
71367;DHT22;60030;52.274;8.040;2023-03-12T15:16:22;8.40;99.90
71367;DHT22;60030;52.274;8.040;2023-03-12T15:18:49;8.40;99.90
71367;DHT22;60030;52.274;8.040;2023-03-12T15:21:17;8.40;99.90
71367;DHT22;60030;52.274;8.040;2023-03-12T15:23:45;8.50;99.90
71367;DHT22;60030;52.274;8.040;2023-03-12T15:26:26;8.60;99.90
71367;DHT22;60030;52.274;8.040;2023-03-12T15:28:54;8.70;99.90
71367;DHT22;60030;52.274;8.040;2023-03-12T15:31:21;8.80;99.90
71367;DHT22;60030;52.274;8.040;2023-03-12T15:33:59;8.90;99.90
71367;DHT22;60030;52.274;8.040;2023-03-12T15:36:28;8.80;99.90
71367;DHT22;60030;52.274;8.040;2023-03-12T15:38:58;8.80;99.90
71367;DHT22;60030;52.274;8.040;2023-03-12T15:41:34;8.90;99.90
71367;DHT22;60030;52.274;8.040;2023-03-12T15:44:11;8.90;99.90
71367;DHT22;60030;52.274;8.040;2023-03-12T15:46:44;8.90;99.90
71367;DHT22;60030;52.274;8.040;2023-03-12T15:49:19;9.00;99.90
71367;DHT22;60030;52.274;8.040;2023-03-12T15:51:58;9.00;99.90
71367;DHT22;60030;52.274;8.040;2023-03-12T15:54:26;9.10;99.90
71367;DHT22;60030;52.274;8.040;2023-03-12T15:57:10;9.10;99.90
71367;DHT22;60030;52.274;8.040;2023-03-12T15:59:41;9.00;99.90
71367;DHT22;60030;52.274;8.040;2023-03-12T16:02:10;9.10;99.90
71367;DHT22;60030;52.274;8.040;2023-03-12T16:04:37;9.20;99.90
71367;DHT22;60030;52.274;8.040;2023-03-12T16:07:08;9.20;99.90
71367;DHT22;60030;52.274;8.040;2023-03-12T16:09:37;9.30;99.90
71367;DHT22;60030;52.274;8.040;2023-03-12T16:12:07;9.20;99.90